Time;durP1;ratioP1;P1;durP2;ratioP2;P2;SDS_P1;SDS_P2;PMS_P1;PMS_P2;Temp;Humidity;BMP_temperature;BMP_pressure;BME280_temperature;BME280_humidity;BME280_pressure;Samples;Min_cycle;Max_cycle;Signal;HPM_P1;HPM_P2
2022/06/16 00:02:04;;;;;;;2.42;1.27;;;;;;;13.67;67.50;96813.13;1731326;81;20988;-80
2022/06/16 00:04:30;;;;;;;1.85;1.35;;;;;;;13.68;67.29;96816.05;1738471;80;20979;-84
2022/06/16 00:06:56;;;;;;;1.90;1.17;;;;;;;13.72;67.48;96808.14;1708471;82;20975;-81
2022/06/16 00:09:23;;;;;;;3.58;1.57;;;;;;;13.77;67.38;96801.33;1724941;82;21377;-81
2022/06/16 00:11:49;;;;;;;2.72;1.50;;;;;;;13.84;67.38;96798.78;1689522;83;21006;-81
2022/06/16 00:14:14;;;;;;;3.83;1.52;;;;;;;13.91;66.97;96798.31;1701069;82;20976;-81
2022/06/16 00:16:40;;;;;;;2.15;1.30;;;;;;;13.99;66.88;96797.33;1685868;84;21001;-81
2022/06/16 00:19:06;;;;;;;1.92;0.98;;;;;;;14.06;66.16;96792.47;1668150;83;21015;-81
2022/06/16 00:21:32;;;;;;;2.00;1.42;;;;;;;14.12;65.56;96793.48;1694729;83;21068;-81
2022/06/16 00:23:58;;;;;;;2.50;1.30;;;;;;;14.17;65.19;96795.05;1708650;83;21419;-81
2022/06/16 00:26:25;;;;;;;2.35;1.30;;;;;;;14.23;64.85;96794.76;1692912;83;21020;-81
2022/06/16 00:28:50;;;;;;;3.45;1.50;;;;;;;14.31;64.82;96795.38;1689314;84;21356;-81
2022/06/16 00:31:19;;;;;;;2.00;1.32;;;;;;;14.37;64.73;96795.92;1687559;84;20997;-80
2022/06/16 00:33:45;;;;;;;3.70;1.47;;;;;;;14.41;64.54;96793.72;1691964;83;21032;-82
2022/06/16 00:36:10;;;;;;;2.10;1.30;;;;;;;14.42;64.49;96792.72;1687869;83;20960;-82
2022/06/16 00:38:37;;;;;;;2.08;1.87;;;;;;;14.45;64.45;96790.24;1693919;83;20993;-82
2022/06/16 00:41:03;;;;;;;2.22;1.27;;;;;;;14.46;64.59;96787.93;1688298;83;21344;-81
2022/06/16 00:43:29;;;;;;;1.72;1.20;;;;;;;14.46;64.45;96785.31;1679013;83;21020;-81
2022/06/16 00:46:01;;;;;;;1.40;1.30;;;;;;;14.47;64.47;96778.58;1686799;83;21016;-81
2022/06/16 00:48:52;;;;;;;2.65;1.60;;;;;;;14.49;64.28;96781.03;1687843;84;21023;-81
2022/06/16 00:51:29;;;;;;;2.83;1.35;;;;;;;14.50;64.69;96780.02;1688816;83;20977;-81
2022/06/16 00:54:07;;;;;;;2.77;1.22;;;;;;;14.51;64.89;96773.79;1707758;83;20936;-81
2022/06/16 00:56:32;;;;;;;2.67;1.55;;;;;;;14.57;64.31;96770.37;1704668;83;20970;-81
2022/06/16 00:59:01;;;;;;;2.15;1.30;;;;;;;14.66;64.14;96771.82;1683983;84;21023;-82
2022/06/16 01:01:28;;;;;;;1.75;1.42;;;;;;;14.76;63.79;96777.46;1721862;83;21046;-81
2022/06/16 01:06:38;;;;;;;3.55;1.45;;;;;;;14.85;63.42;96770.25;1758179;80;21331;-81
2022/06/16 01:09:08;;;;;;;1.70;1.22;;;;;;;14.90;63.66;96767.83;1733477;80;20944;-81
2022/06/16 01:15:21;;;;;;;2.27;1.30;;;;;;;14.95;63.35;96760.98;1672788;83;21033;-81
2022/06/16 01:18:12;;;;;;;2.95;1.52;;;;;;;15.04;63.45;96760.80;1669877;84;21390;-82
2022/06/16 01:21:07;;;;;;;2.70;1.50;;;;;;;15.05;62.96;96756.68;1699034;82;20956;-82
2022/06/16 01:23:59;;;;;;;1.87;1.42;;;;;;;15.07;62.81;96757.78;1749841;80;21068;-82
2022/06/16 01:27:05;;;;;;;1.98;1.55;;;;;;;15.09;63.25;96754.46;1702789;82;20979;-81
2022/06/16 01:30:00;;;;;;;2.72;1.40;;;;;;;15.07;63.63;96757.78;1667952;83;21477;-81
2022/06/16 01:33:03;;;;;;;2.85;1.87;;;;;;;15.05;63.73;96750.13;1709449;83;21362;-81
2022/06/16 01:35:52;;;;;;;3.97;1.57;;;;;;;15.08;63.85;96748.92;1703078;82;21347;-81
2022/06/16 01:38:30;;;;;;;2.58;1.42;;;;;;;15.09;63.33;96751.84;1700211;80;21993;-81
2022/06/16 01:41:13;;;;;;;3.08;1.57;;;;;;;15.12;63.22;96746.20;1694214;83;21070;-81
2022/06/16 01:43:44;;;;;;;2.42;1.50;;;;;;;15.14;62.85;96746.33;1680790;82;21398;-81
2022/06/16 01:46:26;;;;;;;3.50;2.08;;;;;;;15.17;63.30;96743.81;1681957;82;21091;-81
2022/06/16 01:48:57;;;;;;;2.62;1.45;;;;;;;15.18;62.69;96746.22;1674054;83;20973;-81
2022/06/16 01:51:40;;;;;;;2.47;1.40;;;;;;;15.24;62.85;96749.33;1687614;83;20977;-82
2022/06/16 01:54:17;;;;;;;2.98;1.55;;;;;;;15.25;63.26;96743.08;1682913;83;21439;-81
2022/06/16 01:57:16;;;;;;;1.52;1.25;;;;;;;15.26;62.92;96744.69;1669902;83;20990;-81
2022/06/16 01:59:49;;;;;;;4.08;1.62;;;;;;;15.25;62.73;96743.59;1671551;84;21071;-82
2022/06/16 02:02:17;;;;;;;1.80;1.32;;;;;;;15.23;63.27;96742.48;1665746;83;21036;-82
2022/06/16 02:05:06;;;;;;;2.25;1.60;;;;;;;15.20;63.07;96746.82;1723947;80;21051;-80
2022/06/16 02:07:36;;;;;;;2.35;1.72;;;;;;;15.19;63.51;96741.79;1763777;81;21086;-81
2022/06/16 02:10:10;;;;;;;2.52;1.60;;;;;;;15.17;63.33;96747.73;1752303;80;20951;-81
2022/06/16 02:15:38;;;;;;;3.00;1.47;;;;;;;15.13;63.43;96743.89;1732742;81;21343;-81
2022/06/16 02:18:08;;;;;;;4.10;1.75;;;;;;;15.13;63.13;96747.81;1727889;81;20964;-81
2022/06/16 02:21:13;;;;;;;2.15;1.35;;;;;;;15.11;63.35;96749.83;1739854;80;21099;-81
2022/06/16 02:23:41;;;;;;;1.47;1.37;;;;;;;15.08;63.45;96751.55;1723916;80;21458;-81
2022/06/16 02:26:07;;;;;;;2.02;1.57;;;;;;;15.06;63.49;96747.02;1733541;80;21441;-81
2022/06/16 02:28:48;;;;;;;2.20;1.30;;;;;;;15.08;63.59;96751.55;1699995;82;20987;-81
2022/06/16 02:31:48;;;;;;;2.12;1.52;;;;;;;15.10;63.74;96755.56;1699170;82;21059;-81
2022/06/16 02:34:24;;;;;;;2.10;1.50;;;;;;;15.14;63.43;96742.91;1697007;83;21071;-81
2022/06/16 02:37:18;;;;;;;2.02;1.50;;;;;;;15.19;63.93;96745.72;1685479;83;21000;-81
2022/06/16 02:39:57;;;;;;;1.90;1.50;;;;;;;15.22;63.22;96746.61;1707793;82;21068;-81
2022/06/16 02:42:39;;;;;;;2.12;1.52;;;;;;;15.25;63.47;96744.39;1692907;83;20955;-81
2022/06/16 02:45:42;;;;;;;2.80;1.70;;;;;;;15.25;63.48;96749.62;1682086;84;20965;-80
2022/06/16 02:48:23;;;;;;;6.85;1.90;;;;;;;15.24;62.81;96749.83;1675088;84;21087;-81
2022/06/16 02:51:06;;;;;;;2.37;1.45;;;;;;;15.26;63.46;96747.31;1675517;83;20956;-80
2022/06/16 02:56:29;;;;;;;3.12;1.75;;;;;;;15.23;63.66;96748.22;1679992;83;22131;-81
2022/06/16 02:58:57;;;;;;;2.47;1.80;;;;;;;15.26;63.71;96752.55;1687106;83;21047;-81
2022/06/16 03:01:23;;;;;;;1.77;1.50;;;;;;;15.29;63.45;96756.09;1676312;84;21034;-80
2022/06/16 03:04:13;;;;;;;3.98;1.50;;;;;;;15.28;63.29;96754.96;1674923;84;21132;-81
2022/06/16 03:06:39;;;;;;;2.60;1.80;;;;;;;15.28;63.43;96757.58;1697726;83;21338;-80
2022/06/16 03:09:04;;;;;;;2.33;1.67;;;;;;;15.26;63.24;96757.78;1702549;82;21019;-81
2022/06/16 03:11:32;;;;;;;1.95;1.57;;;;;;;15.25;63.23;96759.30;1696870;82;21031;-80
2022/06/16 03:13:58;;;;;;;3.55;1.70;;;;;;;15.27;62.93;96759.89;1695715;83;21371;-81
2022/06/16 03:16:24;;;;;;;1.52;1.30;;;;;;;15.30;63.04;96766.06;1693790;83;21032;-82
2022/06/16 03:18:50;;;;;;;2.50;1.45;;;;;;;15.33;63.01;96764.85;1702198;82;21024;-81
2022/06/16 03:21:16;;;;;;;2.12;1.42;;;;;;;15.32;63.43;96761.42;1706004;82;21002;-80
2022/06/16 03:23:42;;;;;;;2.22;1.52;;;;;;;15.33;63.68;96760.42;1726749;82;21347;-81
2022/06/16 03:26:07;;;;;;;2.55;1.85;;;;;;;15.34;63.50;96759.41;1707921;82;21026;-81
2022/06/16 03:28:33;;;;;;;2.62;1.52;;;;;;;15.35;63.32;96761.02;1700647;83;21046;-80
2022/06/16 03:30:59;;;;;;;2.50;1.60;;;;;;;15.38;63.48;96761.91;1699892;83;21449;-81
2022/06/16 03:33:24;;;;;;;2.05;1.42;;;;;;;15.41;63.68;96757.58;1698768;83;21032;-80
2022/06/16 03:35:50;;;;;;;3.35;1.50;;;;;;;15.45;63.75;96757.97;1706821;82;20999;-81
2022/06/16 03:41:00;;;;;;;1.90;1.30;;;;;;;15.54;63.60;96754.95;1697762;82;21040;-81
2022/06/16 03:43:26;;;;;;;2.87;1.70;;;;;;;15.57;64.11;96747.19;1693558;83;21085;-81
2022/06/16 03:45:52;;;;;;;3.25;1.50;;;;;;;15.61;62.78;96750.53;1696107;82;20944;-81
2022/06/16 03:48:17;;;;;;;1.87;1.40;;;;;;;15.69;63.82;96750.83;1692454;83;21072;-81
2022/06/16 03:50:43;;;;;;;3.30;1.20;;;;;;;15.71;64.29;96750.62;1702964;82;21040;-82
2022/06/16 03:53:09;;;;;;;2.65;1.80;;;;;;;15.71;64.25;96755.86;1727282;82;21057;-81
2022/06/16 03:55:35;;;;;;;1.60;1.20;;;;;;;15.75;63.98;96751.82;1706400;82;21460;-80
2022/06/16 03:58:00;;;;;;;3.08;1.70;;;;;;;15.78;63.98;96753.55;1718109;82;21016;-81
2022/06/16 04:00:26;;;;;;;2.02;1.50;;;;;;;15.79;64.46;96746.49;1698412;83;21032;-80
2022/06/16 04:05:37;;;;;;;2.30;1.67;;;;;;;15.77;64.29;96746.67;1711163;81;21095;-80
2022/06/16 04:08:04;;;;;;;2.45;1.30;;;;;;;15.79;64.75;96745.98;1689385;82;21052;-81
2022/06/16 04:10:29;;;;;;;2.15;1.30;;;;;;;15.79;64.88;96743.88;1708682;82;20937;-81
2022/06/16 04:12:55;;;;;;;1.77;1.25;;;;;;;15.80;65.25;96742.35;1728845;81;21383;-80
2022/06/16 04:15:21;;;;;;;1.50;1.30;;;;;;;15.82;65.33;96735.59;1728943;81;20975;-81
2022/06/16 04:17:46;;;;;;;2.05;1.37;;;;;;;15.82;65.37;96741.64;1687377;84;21043;-81
2022/06/16 04:20:12;;;;;;;1.95;1.47;;;;;;;15.82;65.42;96739.53;1724600;80;21470;-80
2022/06/16 04:22:39;;;;;;;1.32;1.22;;;;;;;15.82;65.42;96739.53;1700840;83;21096;-81
2022/06/16 04:25:06;;;;;;;2.85;1.42;;;;;;;15.83;65.82;96739.31;1682942;83;21076;-80
2022/06/16 04:27:31;;;;;;;2.62;1.47;;;;;;;15.83;66.47;96739.31;1688520;82;21056;-81
2022/06/16 04:29:57;;;;;;;2.45;1.57;;;;;;;15.83;66.11;96742.44;1690843;82;21044;-81
2022/06/16 04:32:23;;;;;;;1.98;1.52;;;;;;;15.85;66.79;96736.48;1690266;83;21039;-80
2022/06/16 04:34:49;;;;;;;2.75;1.70;;;;;;;15.85;66.63;96739.11;1694616;82;21522;-81
2022/06/16 04:37:15;;;;;;;3.92;1.57;;;;;;;15.87;66.93;96737.89;1688782;82;21403;-81
2022/06/16 04:39:40;;;;;;;2.67;1.50;;;;;;;15.90;67.16;96744.02;1705969;82;20960;-82
2022/06/16 04:42:06;;;;;;;2.50;1.62;;;;;;;15.94;67.33;96739.16;1708915;82;21043;-81
2022/06/16 04:44:34;;;;;;;2.77;1.55;;;;;;;15.97;67.66;96745.33;1727273;81;21046;-82
2022/06/16 04:47:02;;;;;;;2.40;1.70;;;;;;;16.00;67.34;96743.60;1730716;82;20965;-81
2022/06/16 04:49:29;;;;;;;2.90;1.57;;;;;;;16.02;67.64;96746.81;1724597;80;21020;-81
2022/06/16 04:51:54;;;;;;;2.33;1.60;;;;;;;16.04;67.89;96747.41;1733291;80;20988;-81
2022/06/16 04:54:20;;;;;;;2.75;1.50;;;;;;;16.04;68.28;96740.86;1736523;80;21031;-81
2022/06/16 04:56:46;;;;;;;2.62;1.70;;;;;;;16.08;67.68;96739.93;1703111;83;21394;-80
2022/06/16 04:59:13;;;;;;;2.10;1.67;;;;;;;16.14;68.05;96738.61;1691509;82;20948;-81
2022/06/16 05:01:40;;;;;;;3.12;1.55;;;;;;;16.20;67.60;96735.15;1739424;80;20992;-81
2022/06/16 05:04:06;;;;;;;5.28;1.72;;;;;;;16.28;67.27;96730.70;1699669;82;20987;-81
2022/06/16 05:06:32;;;;;;;2.40;2.00;;;;;;;16.35;67.31;96728.33;1704915;83;21047;-81
2022/06/16 05:08:58;;;;;;;2.62;1.92;;;;;;;16.42;67.63;96729.59;1698625;84;21358;-81
2022/06/16 05:11:24;;;;;;;2.12;1.70;;;;;;;16.45;67.98;96727.38;1758590;81;21000;-81
2022/06/16 05:13:50;;;;;;;2.87;1.87;;;;;;;16.49;68.40;96726.45;1701367;82;20995;-81
2022/06/16 05:16:15;;;;;;;3.25;2.00;;;;;;;16.53;68.53;96728.14;1676982;84;21052;-81
2022/06/16 05:18:41;;;;;;;2.83;1.90;;;;;;;16.57;68.73;96728.00;1730220;80;20989;-80
2022/06/16 05:21:10;;;;;;;3.40;1.50;;;;;;;16.60;68.01;96725.79;1728524;81;20976;-81
2022/06/16 05:23:36;;;;;;;2.00;1.47;;;;;;;16.67;67.98;96731.02;1719004;80;20977;-81
2022/06/16 05:26:02;;;;;;;2.20;1.57;;;;;;;16.76;68.15;96726.63;1747336;80;20964;-81
2022/06/16 05:28:29;;;;;;;2.47;1.40;;;;;;;16.82;68.56;96728.09;1729269;81;20988;-81
2022/06/16 05:30:55;;;;;;;2.40;1.60;;;;;;;16.85;68.79;96721.91;1696250;82;21036;-81
2022/06/16 05:33:20;;;;;;;2.40;1.40;;;;;;;16.89;68.50;96727.53;1688948;83;21059;-81
2022/06/16 05:35:58;;;;;;;4.15;1.80;;;;;;;16.94;68.19;96730.34;1675846;84;20993;-81
2022/06/16 05:38:24;;;;;;;2.05;1.80;;;;;;;16.98;68.24;96721.82;1687699;83;20977;-82
2022/06/16 05:41:07;;;;;;;2.17;1.30;;;;;;;17.02;68.00;96720.88;1676645;83;20981;-80
2022/06/16 05:43:34;;;;;;;1.77;1.62;;;;;;;17.08;66.54;96720.02;1678453;84;21028;-81
2022/06/16 05:46:00;;;;;;;2.12;1.40;;;;;;;17.14;67.78;96727.05;1684133;83;21351;-82
2022/06/16 05:48:26;;;;;;;2.50;1.42;;;;;;;17.19;67.13;96721.15;1700895;82;21351;-81
2022/06/16 05:50:54;;;;;;;2.05;1.60;;;;;;;17.25;66.84;96719.80;1679396;83;21013;-81
2022/06/16 05:53:20;;;;;;;2.17;1.40;;;;;;;17.33;66.35;96721.33;1688909;83;21040;-81
2022/06/16 05:55:46;;;;;;;3.00;1.67;;;;;;;17.39;66.49;96725.20;1686536;83;21048;-82
2022/06/16 05:58:12;;;;;;;2.33;1.50;;;;;;;17.44;66.93;96723.27;1692136;83;21320;-81
2022/06/16 06:00:38;;;;;;;2.10;1.37;;;;;;;17.49;66.06;96718.16;1695241;83;20993;-82
2022/06/16 06:03:04;;;;;;;5.53;2.60;;;;;;;17.54;66.01;96718.30;1693217;83;21016;-81
2022/06/16 06:05:30;;;;;;;1.90;1.70;;;;;;;17.60;64.60;96725.33;1690283;83;21403;-82
2022/06/16 06:18:58;;;;;;;2.50;1.90;;;;;;;17.92;63.31;96722.61;1696624;83;21269;-82
2022/06/16 06:24:10;;;;;;;2.42;1.60;;;;;;;18.10;63.46;96721.28;1716364;83;20973;-81
2022/06/16 06:26:35;;;;;;;2.30;1.67;;;;;;;18.23;61.39;96727.70;1709878;83;20993;-81
2022/06/16 06:29:01;;;;;;;2.77;1.60;;;;;;;18.38;60.78;96723.34;1689839;83;20984;-81
2022/06/16 06:31:27;;;;;;;2.50;1.45;;;;;;;18.52;61.42;96726.09;1702372;83;20971;-81
2022/06/16 06:33:53;;;;;;;1.57;1.42;;;;;;;18.64;61.69;96726.69;1712986;83;20959;-81
2022/06/16 06:36:18;;;;;;;2.17;1.77;;;;;;;18.70;61.06;96716.56;1754802;80;21363;-81
2022/06/16 06:38:44;;;;;;;2.35;1.77;;;;;;;18.84;61.52;96726.68;1760093;80;20928;-81
2022/06/16 06:41:10;;;;;;;2.05;1.55;;;;;;;18.95;60.92;96722.99;1757915;80;20917;-81
2022/06/16 06:43:36;;;;;;;1.90;1.67;;;;;;;19.04;59.49;96724.28;1747912;81;20953;-80
2022/06/16 06:46:01;;;;;;;3.60;1.52;;;;;;;19.18;59.18;96717.23;1730576;81;21410;-81
2022/06/16 06:48:27;;;;;;;4.12;1.60;;;;;;;19.34;60.12;96713.64;1739888;81;21375;-80
2022/06/16 06:50:53;;;;;;;1.90;1.42;;;;;;;19.44;58.32;96716.00;1696447;82;20951;-80
2022/06/16 06:53:19;;;;;;;3.72;1.72;;;;;;;19.56;59.74;96709.97;1724302;82;21012;-80
2022/06/16 06:55:46;;;;;;;3.02;1.62;;;;;;;19.64;59.82;96706.97;1714400;82;21026;-80
2022/06/16 06:58:19;;;;;;;2.62;1.50;;;;;;;19.74;58.29;96709.83;1715497;82;20947;-81
2022/06/16 07:00:45;;;;;;;2.05;1.42;;;;;;;19.90;58.13;96709.11;1701477;82;20999;-81
2022/06/16 07:03:11;;;;;;;1.85;1.50;;;;;;;20.01;58.64;96704.83;1703738;82;20959;-81
2022/06/16 07:05:37;;;;;;;3.05;1.60;;;;;;;20.08;58.83;96707.64;1706486;82;21062;-82
2022/06/16 07:08:05;;;;;;;1.90;1.42;;;;;;;20.19;58.15;96706.01;1711875;82;20932;-81
2022/06/16 07:10:32;;;;;;;2.75;1.50;;;;;;;20.25;59.61;96698.98;1717568;82;21080;-82
2022/06/16 07:12:58;;;;;;;3.17;1.40;;;;;;;20.32;58.28;96702.27;1743735;80;20984;-81
2022/06/16 07:15:24;;;;;;;2.20;1.52;;;;;;;20.38;57.17;96695.55;1742499;81;20952;-82
2022/06/16 07:17:50;;;;;;;2.95;1.50;;;;;;;20.49;56.28;96698.39;1695982;82;21035;-82
2022/06/16 07:20:16;;;;;;;2.45;1.52;;;;;;;20.60;55.85;96700.19;1694461;83;20961;-82
2022/06/16 07:22:44;;;;;;;2.45;1.60;;;;;;;20.68;55.90;96699.81;1719473;83;20940;-80
2022/06/16 07:25:10;;;;;;;3.30;1.60;;;;;;;20.75;55.67;96693.05;1720277;82;20981;-81
2022/06/16 07:27:37;;;;;;;4.80;1.70;;;;;;;20.85;55.57;96699.31;1698748;83;21043;-81
2022/06/16 07:30:13;;;;;;;4.03;2.50;;;;;;;20.92;55.20;96697.30;1688518;83;20981;-81
2022/06/16 07:32:36;;;;;;;2.87;1.62;;;;;;;20.98;55.16;96692.90;1701065;83;21019;-81
2022/06/16 07:35:02;;;;;;;1.85;1.52;;;;;;;21.05;54.97;96701.48;1698692;83;21047;-82
2022/06/16 07:37:28;;;;;;;1.90;1.75;;;;;;;21.11;54.22;96696.55;1697972;80;20960;-82
2022/06/16 07:39:54;;;;;;;3.55;2.05;;;;;;;21.20;54.08;96695.11;1702515;81;21001;-81
2022/06/16 07:42:19;;;;;;;2.72;1.90;;;;;;;21.25;54.56;96696.53;1706379;83;21031;-82
2022/06/16 07:44:45;;;;;;;3.02;2.25;;;;;;;21.33;55.38;96699.83;1693242;83;21003;-82
2022/06/16 07:47:11;;;;;;;2.92;1.62;;;;;;;21.40;55.08;96699.93;1695481;83;21459;-81
2022/06/16 07:49:36;;;;;;;3.40;1.90;;;;;;;21.45;54.63;96699.20;1696034;83;21275;-80
2022/06/16 07:52:03;;;;;;;3.10;2.02;;;;;;;21.47;55.27;96697.91;1695824;83;21028;-82
2022/06/16 07:54:29;;;;;;;4.10;1.75;;;;;;;21.50;54.26;96702.73;1684546;83;21527;-82
2022/06/16 07:56:56;;;;;;;2.02;1.50;;;;;;;21.56;53.70;96695.14;1691782;83;21007;-81
2022/06/16 07:59:21;;;;;;;3.20;1.90;;;;;;;21.64;53.29;96693.11;1684765;83;21032;-82
2022/06/16 08:01:47;;;;;;;1.95;1.70;;;;;;;21.73;54.89;96691.66;1692509;82;21084;-81
2022/06/16 08:04:13;;;;;;;3.35;1.50;;;;;;;21.83;53.20;96695.24;1683224;84;20939;-81
2022/06/16 08:06:39;;;;;;;3.45;1.92;;;;;;;21.95;52.15;96693.78;1711735;83;21101;-81
2022/06/16 08:09:06;;;;;;;1.65;1.40;;;;;;;22.08;52.95;96687.36;1706766;83;20981;-81
2022/06/16 08:14:16;;;;;;;1.77;1.52;;;;;;;22.26;51.75;96684.91;1686188;83;21009;-81
2022/06/16 08:16:42;;;;;;;2.75;1.70;;;;;;;22.40;50.98;96689.56;1682231;83;20945;-82
2022/06/16 08:19:08;;;;;;;2.80;1.80;;;;;;;22.58;51.36;96684.98;1683850;84;21016;-82
2022/06/16 08:21:33;;;;;;;2.42;1.70;;;;;;;22.80;51.56;96688.91;1700401;83;20921;-82
2022/06/16 08:23:59;;;;;;;2.42;1.60;;;;;;;22.97;50.37;96679.81;1688244;83;21352;-81
2022/06/16 08:26:25;;;;;;;2.20;1.32;;;;;;;23.14;49.59;96687.63;1692688;83;20965;-81
2022/06/16 08:28:52;;;;;;;1.80;1.65;;;;;;;23.30;49.73;96685.36;1678669;84;21056;-81
2022/06/16 08:31:20;;;;;;;3.12;1.52;;;;;;;23.48;49.60;96691.30;1687663;83;21027;-78
2022/06/16 08:33:48;;;;;;;3.65;1.85;;;;;;;23.69;49.64;96688.27;1701939;83;21068;-79
2022/06/16 08:36:13;;;;;;;3.00;1.52;;;;;;;23.80;49.40;96689.39;1715005;83;21052;-79
2022/06/16 08:38:39;;;;;;;2.08;1.22;;;;;;;23.94;48.62;96691.84;1714522;82;20985;-80
2022/06/16 08:41:11;;;;;;;2.83;1.52;;;;;;;24.03;46.98;96678.86;1705646;83;21430;-80
2022/06/16 08:43:42;;;;;;;1.82;1.42;;;;;;;24.08;47.13;96681.55;1703300;83;21045;-80
2022/06/16 08:46:08;;;;;;;4.08;1.82;;;;;;;24.18;47.44;96684.23;1691566;83;21359;-80
2022/06/16 08:49:18;;;;;;;2.52;1.60;;;;;;;24.36;46.96;96677.67;1709986;83;20981;-79
2022/06/16 08:52:21;;;;;;;2.80;1.57;;;;;;;24.49;45.19;96679.83;1704232;83;20941;-80
2022/06/16 08:55:12;;;;;;;2.45;1.65;;;;;;;24.64;45.29;96676.94;1685446;83;21111;-80
2022/06/16 08:58:13;;;;;;;2.20;1.60;;;;;;;24.75;44.79;96676.69;1677738;83;20958;-80
2022/06/16 09:00:44;;;;;;;2.77;1.60;;;;;;;24.93;45.26;96678.56;1686567;85;20948;-81
2022/06/16 09:03:14;;;;;;;2.35;1.37;;;;;;;25.06;45.80;96681.52;1685499;85;21032;-81
2022/06/16 09:06:02;;;;;;;1.82;1.42;;;;;;;25.08;43.67;96683.91;1721945;82;21024;-81
2022/06/16 09:08:55;;;;;;;2.30;1.45;;;;;;;25.13;45.14;96682.03;1684660;84;21040;-80
2022/06/16 09:11:55;;;;;;;2.25;1.50;;;;;;;25.28;45.01;96681.23;1721827;82;21028;-80
2022/06/16 09:17:59;;;;;;;2.25;1.80;;;;;;;25.40;44.25;96676.97;1719062;82;20981;-81
2022/06/16 09:21:01;;;;;;;4.53;1.87;;;;;;;25.51;43.69;96678.52;1719280;82;20977;-82
2022/06/16 09:23:55;;;;;;;;;;;;;;;25.57;42.70;96677.99;1726523;82;21043;-80
2022/06/16 09:26:33;;;;;;;3.72;1.50;;;;;;;25.57;42.24;96681.45;1722232;82;20095;-82
2022/06/16 09:29:05;;;;;;;2.83;2.10;;;;;;;25.51;42.39;96675.06;1721065;82;21051;-81
2022/06/16 09:31:51;;;;;;;2.77;1.70;;;;;;;25.45;43.31;96666.30;1720039;82;20996;-81
2022/06/16 09:34:41;;;;;;;2.08;1.47;;;;;;;25.42;42.73;96664.19;1681144;84;20956;-81
2022/06/16 09:37:24;;;;;;;2.25;1.72;;;;;;;25.53;43.74;96666.27;1714904;82;21020;-81
2022/06/16 09:40:02;;;;;;;3.02;1.90;;;;;;;25.60;42.70;96666.80;1729948;82;20979;-81
2022/06/16 09:42:49;;;;;;;3.25;1.67;;;;;;;25.57;41.84;96674.00;1723190;82;21030;-81
2022/06/16 09:45:35;;;;;;;5.17;3.47;;;;;;;25.62;41.50;96668.66;1731482;82;20999;-82
2022/06/16 09:48:16;;;;;;;12.93;8.40;;;;;;;25.70;41.43;96670.78;1715029;82;21088;-81
2022/06/16 09:51:14;;;;;;;4.50;3.62;;;;;;;25.82;41.50;96663.83;1702833;82;20959;-81
2022/06/16 09:53:48;;;;;;;5.47;3.77;;;;;;;25.86;41.73;96658.22;1684438;84;21032;-81
2022/06/16 09:56:29;;;;;;;2.70;2.00;;;;;;;25.93;43.43;96664.06;1719225;82;20975;-82
2022/06/16 09:58:58;;;;;;;2.77;2.45;;;;;;;26.01;42.50;96668.27;1719124;82;20948;-81
2022/06/16 10:01:28;;;;;;;4.30;3.72;;;;;;;26.11;42.05;96666.11;1685103;85;21074;-82
2022/06/16 10:04:01;;;;;;;3.65;1.92;;;;;;;26.20;41.52;96665.02;1711696;82;21051;-82
2022/06/16 10:06:38;;;;;;;3.08;1.80;;;;;;;26.34;41.05;96660.66;1688498;83;21058;-81
2022/06/16 10:09:35;;;;;;;3.10;2.30;;;;;;;26.34;41.05;96660.66;1689770;84;21338;-81
2022/06/16 10:12:16;;;;;;;2.83;1.85;;;;;;;26.43;40.97;96656.91;1724384;82;20955;-81
2022/06/16 10:14:50;;;;;;;1.98;1.60;;;;;;;26.57;40.61;96664.02;1726564;82;20992;-81
2022/06/16 10:17:18;;;;;;;2.30;1.50;;;;;;;26.61;42.32;96641.06;1707734;83;20988;-84
2022/06/16 10:19:44;;;;;;;3.35;2.60;;;;;;;26.67;40.08;96647.69;1692627;84;20947;-82
2022/06/16 10:22:16;;;;;;;3.42;1.80;;;;;;;26.64;41.76;96651.70;1729183;81;21406;-81
2022/06/16 10:25:15;;;;;;;3.27;1.92;;;;;;;26.73;39.59;96658.05;1740929;81;20980;-81
2022/06/16 10:27:55;;;;;;;3.05;1.98;;;;;;;26.73;39.59;96658.05;1730738;81;20965;-81
2022/06/16 10:30:34;;;;;;;14.58;12.93;;;;;;;26.79;40.36;96648.93;1726498;81;21083;-81
2022/06/16 10:33:19;;;;;;;4.33;3.92;;;;;;;26.72;40.01;96652.46;1726590;82;20971;-81
2022/06/16 10:36:03;;;;;;;2.55;1.62;;;;;;;26.69;40.82;96648.23;1725812;82;21115;-81
2022/06/16 10:38:39;;;;;;;2.90;1.82;;;;;;;26.46;40.66;96651.03;1726811;81;20956;-81
2022/06/16 10:41:09;;;;;;;2.72;1.50;;;;;;;26.47;41.80;96655.28;1727216;81;21044;-81
2022/06/16 10:43:41;;;;;;;2.50;1.55;;;;;;;26.57;41.17;96659.23;1715295;81;21060;-82
2022/06/16 10:46:13;;;;;;;3.15;1.62;;;;;;;26.62;39.88;96655.19;1692269;84;21031;-81
2022/06/16 10:48:40;;;;;;;2.95;1.75;;;;;;;26.53;41.24;96648.33;1728132;81;21024;-82
2022/06/16 10:51:15;;;;;;;2.25;1.50;;;;;;;26.49;41.31;96647.81;1726798;81;20984;-81
2022/06/16 10:53:45;;;;;;;2.17;1.82;;;;;;;26.57;42.24;96652.03;1721671;81;21287;-82
2022/06/16 10:56:19;;;;;;;2.47;1.60;;;;;;;26.61;41.14;96651.73;1691859;84;20955;-82
2022/06/16 10:58:49;;;;;;;5.40;4.12;;;;;;;26.64;41.04;96650.38;1691725;85;21034;-82
2022/06/16 11:01:26;;;;;;;3.33;2.50;;;;;;;26.75;40.17;96651.11;1689158;85;21369;-82
2022/06/16 11:03:55;;;;;;;3.40;3.10;;;;;;;26.64;40.12;96649.04;1670714;84;21733;-82
2022/06/16 11:06:23;;;;;;;12.15;10.78;;;;;;;26.48;40.55;96642.22;1663219;85;21023;-82
2022/06/16 11:08:58;;;;;;;5.15;4.28;;;;;;;26.39;42.51;96650.55;1724430;82;21031;-82
2022/06/16 11:11:43;;;;;;;11.70;9.80;;;;;;;26.26;41.73;96647.93;1724472;82;21062;-81
2022/06/16 11:14:16;;;;;;;3.37;2.65;;;;;;;26.06;41.84;96648.84;1724703;83;21367;-81
2022/06/16 11:16:51;;;;;;;3.50;2.77;;;;;;;25.96;42.14;96643.01;1687486;84;21353;-81
2022/06/16 11:19:36;;;;;;;3.20;2.90;;;;;;;26.13;42.09;96633.34;1687599;84;21349;-81
2022/06/16 11:22:30;;;;;;;3.27;2.90;;;;;;;26.28;42.51;96643.91;1724691;82;21326;-82
2022/06/16 11:25:22;;;;;;;3.00;2.30;;;;;;;26.09;41.26;96633.64;1684752;84;20944;-82
2022/06/16 11:28:12;;;;;;;3.87;3.02;;;;;;;26.01;41.40;96645.64;1668073;86;20945;-81
2022/06/16 11:30:53;;;;;;;3.12;2.35;;;;;;;26.23;44.14;96631.97;1728232;82;21283;-81
2022/06/16 11:36:31;;;;;;;3.27;2.30;;;;;;;26.61;44.17;96633.61;1680281;84;21046;-81
2022/06/16 11:39:22;;;;;;;4.50;2.65;;;;;;;26.90;42.54;96628.33;1730697;82;20980;-80
2022/06/16 11:41:51;;;;;;;3.12;2.30;;;;;;;27.07;42.52;96624.73;1725288;82;20994;-82
2022/06/16 11:44:44;;;;;;;2.17;1.80;;;;;;;27.19;42.05;96615.03;1686539;84;20983;-82
2022/06/16 11:47:33;;;;;;;6.03;5.28;;;;;;;27.28;40.74;96612.53;1728607;82;20995;-82
2022/06/16 11:50:11;;;;;;;3.37;3.08;;;;;;;27.41;40.11;96615.32;1736893;82;21370;-81
2022/06/16 11:52:45;;;;;;;2.40;1.95;;;;;;;27.43;41.69;96619.83;1726327;82;21075;-83
2022/06/16 11:55:30;;;;;;;3.62;2.37;;;;;;;27.52;39.83;96613.34;1689729;84;21390;-82
2022/06/16 11:58:28;;;;;;;3.72;2.20;;;;;;;27.59;40.74;96607.12;1724778;82;20995;-82
2022/06/16 12:00:58;;;;;;;2.20;1.65;;;;;;;27.64;40.12;96607.62;1683124;85;21031;-82
2022/06/16 12:03:33;;;;;;;3.30;1.80;;;;;;;27.34;40.49;96609.55;1724677;82;21056;-82
2022/06/16 12:06:23;;;;;;;6.67;2.22;;;;;;;27.13;41.21;96604.13;1688095;84;21067;-81
2022/06/16 12:09:04;;;;;;;2.47;1.95;;;;;;;26.97;42.32;96606.12;1730919;81;21003;-81
2022/06/16 12:11:58;;;;;;;3.83;2.33;;;;;;;26.81;43.23;96602.00;1692220;84;20971;-80
2022/06/16 12:14:36;;;;;;;2.15;1.95;;;;;;;26.69;42.93;96603.71;1685980;84;21038;-81
2022/06/16 12:17:39;;;;;;;2.98;2.00;;;;;;;26.49;42.65;96595.85;1690799;85;20975;-81
2022/06/16 12:20:17;;;;;;;2.60;2.20;;;;;;;26.34;43.34;96590.86;1687475;85;21015;-81
2022/06/16 12:23:03;;;;;;;2.30;2.08;;;;;;;26.22;44.12;96588.30;1694423;84;21044;-81
2022/06/16 12:25:52;;;;;;;2.12;1.95;;;;;;;26.39;43.41;96589.28;1658464;85;20944;-81
2022/06/16 12:28:52;;;;;;;3.33;2.27;;;;;;;26.36;43.32;96581.82;1738673;81;20936;-82
2022/06/16 12:31:23;;;;;;;4.53;2.10;;;;;;;26.51;44.51;96583.05;1731460;82;21422;-82
2022/06/16 12:34:12;;;;;;;3.98;2.45;;;;;;;26.82;46.30;96573.72;1695856;82;20984;-81
2022/06/16 12:36:53;;;;;;;3.05;1.95;;;;;;;27.03;45.94;96566.91;1723799;82;21052;-82
2022/06/16 12:39:44;;;;;;;4.22;2.77;;;;;;;27.21;43.62;96561.65;1691067;84;21018;-82
2022/06/16 12:42:14;;;;;;;4.35;2.62;;;;;;;27.37;41.75;96563.61;1688909;84;21028;-82
2022/06/16 12:45:11;;;;;;;2.30;2.10;;;;;;;27.24;43.82;96558.95;1690503;84;21064;-81